Aviation Digital Data Service (ADDS)

Output produced by METARs form (1705 UTC 24 April 2017)
found at http://www.aviationweather.gov/adds/metars/
 
FWCL 241600Z 13008KT 9999 SCT020 BKN080 23/16 Q1020 NOSIG
TAF FWCL 241500Z 2418/2524 12005KT 9999 BKN020 BKN080 
     BECMG 2420/2424 16005KT CAVOK 
     FM250300 00000KT 0200 FG FEW003 SCT020 
     BECMG 2508/2510 17004KT 9999 BKN030 
     PROB30 
     TEMPO 2512/2516 8000 -RADZ FEW020 BKN030 BKN070 
     FM251800 17008KT 9999 SCT030 BKN080 
     BECMG 2521/2523 16004KT 9999 FEW020 BKN080